createdAt,value
2019-01-06T00:01:53.383Z,1.17
2019-01-06T00:04:40.963Z,1.93
2019-01-06T00:07:42.718Z,1.40
2019-01-06T00:10:28.530Z,1.50
2019-01-06T00:13:14.242Z,1.37
2019-01-06T00:16:01.948Z,1.42
2019-01-06T00:19:09.154Z,1.20
2019-01-06T00:21:56.326Z,2.17
2019-01-06T00:25:00.546Z,1.55
2019-01-06T00:27:48.040Z,1.30
2019-01-06T00:30:48.322Z,1.20
2019-01-06T00:33:56.061Z,1.10
2019-01-06T00:37:02.229Z,1.35
2019-01-06T00:40:00.249Z,1.47
2019-01-06T00:42:55.183Z,1.25
2019-01-06T00:45:44.995Z,1.20
2019-01-06T00:48:32.495Z,1.82
2019-01-06T00:51:39.679Z,1.42
2019-01-06T00:54:39.962Z,1.60
2019-01-06T00:57:30.688Z,1.80
2019-01-06T01:00:24.241Z,1.67
2019-01-06T01:03:31.386Z,1.30
2019-01-06T01:06:31.494Z,1.30
2019-01-06T01:09:58.172Z,1.05
2019-01-06T01:13:00.903Z,1.50
2019-01-06T01:16:01.120Z,1.20
2019-01-06T01:19:08.051Z,1.30
2019-01-06T01:22:07.785Z,1.17
2019-01-06T01:25:14.965Z,1.20
2019-01-06T01:28:14.773Z,1.05
2019-01-06T01:31:17.913Z,1.20
2019-01-06T01:34:25.261Z,1.72
2019-01-06T01:37:25.565Z,1.35
2019-01-06T01:40:32.544Z,1.30
2019-01-06T01:43:26.554Z,1.40
2019-01-06T01:46:29.345Z,1.50
2019-01-06T01:49:22.935Z,1.25
2019-01-06T01:52:30.770Z,1.30
2019-01-06T01:55:31.067Z,1.45
2019-01-06T01:58:38.022Z,1.40
2019-01-06T02:04:44.414Z,1.72
2019-01-06T02:07:51.569Z,1.50
2019-01-06T02:11:01.631Z,1.55
2019-01-06T02:14:02.067Z,1.50
2019-01-06T02:16:59.306Z,1.90
2019-01-06T02:19:47.157Z,1.70
2019-01-06T02:22:48.256Z,1.60
2019-01-06T02:25:55.207Z,1.52
2019-01-06T02:29:03.833Z,1.40
2019-01-06T02:32:03.986Z,2.20
2019-01-06T02:35:11.012Z,1.40
2019-01-06T02:38:11.578Z,1.70
2019-01-06T02:41:18.739Z,1.62
2019-01-06T02:44:22.653Z,1.60
2019-01-06T02:47:31.526Z,1.77
2019-01-06T02:50:32.005Z,2.40
2019-01-06T02:53:38.956Z,1.57
2019-01-06T02:56:26.440Z,2.30
2019-01-06T02:59:33.454Z,2.40
2019-01-06T03:02:26.457Z,2.25
2019-01-06T03:05:29.241Z,1.87
2019-01-06T03:08:19.271Z,1.60
2019-01-06T03:11:06.789Z,1.85
2019-01-06T03:16:50.295Z,2.30
2019-01-06T03:19:52.688Z,2.37
2019-01-06T03:22:40.212Z,1.80
2019-01-06T03:25:37.879Z,2.20
2019-01-06T03:28:23.580Z,2.27
2019-01-06T03:31:11.274Z,1.42
2019-01-06T03:33:58.790Z,2.33
2019-01-06T03:36:46.302Z,1.77
2019-01-06T03:43:08.115Z,1.90
2019-01-06T03:45:57.693Z,2.60
2019-01-06T03:48:51.622Z,2.30
2019-01-06T03:51:48.252Z,1.25
2019-01-06T03:54:35.940Z,2.10
2019-01-06T03:57:43.467Z,1.90
2019-01-06T04:00:41.764Z,1.95
2019-01-06T04:03:27.984Z,1.80
2019-01-06T04:06:15.446Z,1.90
2019-01-06T04:09:09.802Z,1.98
2019-01-06T04:12:16.952Z,1.95
2019-01-06T04:15:17.363Z,1.95
2019-01-06T04:18:24.498Z,2.37
2019-01-06T04:21:25.078Z,2.20
2019-01-06T04:24:32.799Z,2.02
2019-01-06T04:27:36.314Z,1.30
2019-01-06T04:30:36.992Z,1.90
2019-01-06T04:33:24.504Z,1.47
2019-01-06T04:36:25.188Z,1.90
2019-01-06T04:39:32.158Z,1.60
2019-01-06T04:42:32.848Z,1.40
2019-01-06T04:45:35.518Z,1.32
2019-01-06T04:48:42.878Z,1.47
2019-01-06T04:51:42.717Z,1.60
2019-01-06T04:54:38.346Z,1.85
2019-01-06T04:57:26.073Z,1.20
2019-01-06T05:00:26.342Z,1.80
2019-01-06T05:03:33.665Z,1.40
2019-01-06T05:06:32.053Z,2.52
2019-01-06T05:09:35.466Z,1.40
2019-01-06T05:12:35.455Z,1.72
2019-01-06T05:15:22.982Z,1.72
2019-01-06T05:18:29.912Z,2.00
2019-01-06T05:21:17.904Z,1.50
2019-01-06T05:24:25.093Z,1.50
2019-01-06T05:27:12.785Z,1.90
2019-01-06T05:30:12.906Z,1.30
2019-01-06T05:33:13.589Z,1.98
2019-01-06T05:39:09.917Z,1.50
2019-01-06T05:41:49.986Z,1.80
2019-01-06T05:44:37.453Z,1.47
2019-01-06T05:47:25.079Z,1.20
2019-01-06T05:50:28.342Z,1.17
2019-01-06T05:53:28.878Z,1.10
2019-01-06T05:56:29.429Z,1.00
2019-01-06T05:59:29.172Z,1.30
2019-01-06T06:02:36.940Z,1.40
2019-01-06T06:05:24.406Z,1.20
2019-01-06T06:08:14.676Z,1.90
2019-01-06T06:11:02.132Z,1.07
2019-01-06T06:13:49.761Z,1.20
2019-01-06T06:16:53.366Z,1.07
2019-01-06T06:20:00.532Z,1.80
2019-01-06T06:23:04.465Z,1.30
2019-01-06T06:26:07.999Z,1.42
2019-01-06T06:29:08.022Z,1.22
2019-01-06T06:32:15.784Z,1.27
2019-01-06T06:35:16.583Z,1.35
2019-01-06T06:38:23.727Z,1.45
2019-01-06T06:41:24.588Z,1.30
2019-01-06T06:44:31.759Z,1.37
2019-01-06T06:47:38.729Z,1.17
2019-01-06T06:50:46.319Z,1.20
2019-01-06T06:53:41.376Z,1.60
2019-01-06T06:56:48.933Z,1.60
2019-01-06T06:59:51.151Z,1.82
2019-01-06T07:03:25.968Z,1.57
2019-01-06T07:06:27.494Z,2.12
2019-01-06T07:09:05.614Z,2.12
2019-01-06T07:11:53.780Z,1.70
2019-01-06T07:14:47.749Z,1.52
2019-01-06T07:18:14.353Z,1.72
2019-01-06T07:21:05.844Z,1.70
2019-01-06T07:23:53.513Z,1.47
2019-01-06T07:26:42.077Z,1.95
2019-01-06T07:29:38.472Z,1.62
2019-01-06T07:32:31.617Z,2.40
2019-01-06T07:35:17.659Z,1.60
2019-01-06T07:38:23.426Z,1.67
2019-01-06T07:41:19.934Z,1.82
2019-01-06T07:47:25.890Z,1.35
2019-01-06T07:50:33.024Z,1.67
2019-01-06T07:56:47.558Z,1.72
2019-01-06T07:59:50.579Z,2.33
2019-01-06T08:02:56.479Z,1.70
2019-01-06T08:06:00.487Z,2.77
2019-01-06T08:09:07.672Z,2.95
2019-01-06T08:11:58.989Z,2.75
2019-01-06T08:15:06.290Z,1.85
2019-01-06T08:18:07.753Z,2.35
2019-01-06T08:21:15.704Z,2.55
2019-01-06T08:27:26.102Z,2.30
2019-01-06T08:30:14.313Z,2.80
2019-01-06T08:33:01.834Z,1.98
2019-01-06T08:35:44.298Z,2.15
2019-01-06T08:41:43.486Z,2.55
2019-01-06T08:44:31.377Z,2.62
2019-01-06T08:47:21.669Z,2.65
2019-01-06T08:50:23.859Z,3.17
2019-01-06T08:53:31.046Z,2.33
2019-01-06T08:56:18.708Z,2.83
2019-01-06T08:59:06.253Z,2.08
2019-01-06T09:01:56.437Z,2.17
2019-01-06T09:04:50.111Z,2.95
2019-01-06T09:07:32.987Z,2.90
2019-01-06T09:10:20.700Z,2.17
2019-01-06T09:13:21.419Z,2.75
2019-01-06T09:16:28.636Z,2.15
2019-01-06T09:19:28.711Z,2.47
2019-01-06T09:22:37.114Z,2.22
2019-01-06T09:25:24.999Z,2.08
2019-01-06T09:28:32.185Z,1.80
2019-01-06T09:31:38.320Z,2.00
2019-01-06T09:34:45.349Z,2.30
2019-01-06T09:40:51.874Z,6.97
2019-01-06T09:43:39.733Z,1.42
2019-01-06T09:46:30.513Z,2.58
2019-01-06T09:49:37.882Z,1.40
2019-01-06T09:52:34.241Z,1.87
2019-01-06T09:55:22.052Z,2.17
2019-01-06T09:58:29.323Z,1.70
2019-01-06T10:01:32.272Z,1.70
2019-01-06T10:04:20.540Z,1.57
2019-01-06T10:07:21.799Z,1.65
2019-01-06T10:10:28.957Z,2.37
2019-01-06T10:13:29.552Z,2.15
2019-01-06T10:16:40.141Z,3.00
2019-01-06T10:19:42.038Z,2.58
2019-01-06T10:22:49.835Z,1.65
2019-01-06T10:25:49.839Z,2.55
2019-01-06T10:28:57.168Z,2.00
2019-01-06T10:35:05.648Z,2.27
2019-01-06T10:37:53.476Z,2.25
2019-01-06T10:40:46.992Z,1.67
2019-01-06T10:43:47.754Z,2.45
2019-01-06T10:46:55.423Z,2.02
2019-01-06T10:49:42.952Z,1.82
2019-01-06T10:55:41.367Z,2.00
2019-01-06T10:58:29.907Z,1.98
2019-01-06T11:01:29.929Z,1.70
2019-01-06T11:04:17.962Z,2.10
2019-01-06T11:07:21.539Z,1.50
2019-01-06T11:10:10.115Z,1.80
2019-01-06T11:12:56.328Z,1.60
2019-01-06T11:15:43.631Z,1.85
2019-01-06T11:18:31.359Z,1.98
2019-01-06T11:21:19.377Z,2.10
2019-01-06T11:24:32.077Z,1.60
2019-01-06T11:27:19.782Z,1.47
2019-01-06T11:30:07.351Z,1.87
2019-01-06T11:33:07.540Z,1.60
2019-01-06T11:36:14.613Z,1.75
2019-01-06T11:39:15.052Z,1.90
2019-01-06T11:42:02.620Z,1.50
2019-01-06T11:45:03.799Z,1.70
2019-01-06T11:47:51.416Z,1.90
2019-01-06T11:50:40.083Z,1.60
2019-01-06T11:56:34.324Z,2.42
2019-01-06T11:59:22.682Z,1.50
2019-01-06T12:02:29.455Z,1.27
2019-01-06T12:05:17.062Z,1.40
2019-01-06T12:07:56.415Z,2.90
2019-01-06T12:10:44.533Z,2.05
2019-01-06T12:13:37.510Z,2.02
2019-01-06T12:16:25.519Z,2.22
2019-01-06T12:19:33.650Z,1.80
2019-01-06T12:22:34.219Z,1.90
2019-01-06T12:25:34.177Z,2.37
2019-01-06T12:28:22.253Z,3.40
2019-01-06T12:31:10.218Z,1.95
2019-01-06T12:34:21.056Z,2.02
2019-01-06T12:40:24.235Z,2.90
2019-01-06T12:43:24.741Z,2.30
2019-01-06T12:46:14.260Z,3.55
2019-01-06T12:49:21.606Z,3.17
2019-01-06T12:52:24.039Z,1.92
2019-01-06T12:55:27.969Z,2.75
2019-01-06T12:58:38.298Z,1.85
2019-01-06T13:01:39.198Z,2.50
2019-01-06T13:04:46.547Z,2.15
2019-01-06T13:10:54.974Z,2.80
2019-01-06T13:13:56.288Z,3.08
2019-01-06T13:17:03.987Z,2.47
2019-01-06T13:19:51.675Z,3.27
2019-01-06T13:22:39.540Z,2.08
2019-01-06T13:25:26.370Z,1.80
2019-01-06T13:28:28.295Z,3.17
2019-01-06T13:31:29.475Z,2.40
2019-01-06T13:34:39.043Z,3.25
2019-01-06T13:37:39.573Z,2.40
2019-01-06T13:40:43.036Z,1.60
2019-01-06T13:43:48.347Z,2.10
2019-01-06T13:46:48.428Z,2.10
2019-01-06T13:49:55.625Z,2.60
2019-01-06T13:52:56.418Z,2.58
2019-01-06T13:55:56.408Z,2.15
2019-01-06T13:59:03.597Z,2.50
2019-01-06T14:02:04.406Z,2.80
2019-01-06T14:05:01.088Z,1.90
2019-01-06T14:08:01.469Z,2.27
2019-01-06T14:11:09.350Z,1.85
2019-01-06T14:13:57.281Z,2.50
2019-01-06T14:17:04.608Z,3.00
2019-01-06T14:19:52.300Z,1.95
2019-01-06T14:22:40.154Z,1.52
2019-01-06T14:25:27.959Z,3.20
2019-01-06T14:28:35.635Z,1.35
2019-01-06T14:31:23.578Z,2.77
2019-01-06T14:34:32.416Z,1.90
2019-01-06T14:37:38.937Z,2.10
2019-01-06T14:40:40.163Z,2.10
2019-01-06T14:43:32.483Z,2.15
2019-01-06T14:46:45.445Z,1.45
2019-01-06T14:53:01.478Z,2.30
2019-01-06T14:56:11.244Z,2.30
2019-01-06T14:59:14.711Z,1.60
2019-01-06T15:02:10.012Z,2.47
2019-01-06T15:05:19.507Z,3.95
2019-01-06T15:08:19.330Z,2.05
2019-01-06T15:11:27.019Z,3.77
2019-01-06T15:17:04.155Z,2.50
2019-01-06T15:19:52.324Z,3.95
2019-01-06T15:25:42.247Z,1.60
2019-01-06T15:28:30.032Z,4.78
2019-01-06T15:31:35.924Z,6.35
2019-01-06T15:34:43.388Z,4.80
2019-01-06T15:37:45.807Z,8.95
2019-01-06T15:40:46.344Z,3.05
2019-01-06T15:43:46.517Z,5.12
2019-01-06T15:49:40.533Z,9.48
2019-01-06T15:52:46.749Z,4.37
2019-01-06T15:55:53.333Z,4.58
2019-01-06T15:58:40.972Z,4.17
2019-01-06T16:01:24.318Z,3.62
2019-01-06T16:04:29.110Z,2.25
2019-01-06T16:07:37.359Z,4.33
2019-01-06T16:10:41.737Z,8.35
2019-01-06T16:13:57.472Z,1.98
2019-01-06T16:17:05.612Z,3.05
2019-01-06T16:20:08.665Z,3.25
2019-01-06T16:23:19.793Z,11.10
2019-01-06T16:26:19.129Z,9.68
2019-01-06T16:29:09.318Z,3.98
2019-01-06T16:32:17.243Z,4.60
2019-01-06T16:35:24.761Z,3.58
2019-01-06T16:41:35.470Z,2.90
2019-01-06T16:44:24.943Z,3.92
2019-01-06T16:50:14.176Z,8.63
2019-01-06T16:56:19.570Z,4.78
2019-01-06T16:59:26.954Z,8.08
2019-01-06T17:02:23.388Z,3.65
2019-01-06T17:05:10.189Z,4.15
2019-01-06T17:10:51.335Z,3.95
2019-01-06T17:13:43.030Z,4.10
2019-01-06T17:16:44.656Z,5.40
2019-01-06T17:19:56.467Z,3.70
2019-01-06T17:22:53.216Z,4.20
2019-01-06T17:25:46.612Z,3.37
2019-01-06T17:28:32.981Z,5.15
2019-01-06T17:31:11.458Z,4.85
2019-01-06T17:33:58.037Z,4.28
2019-01-06T17:39:42.859Z,6.75
2019-01-06T17:42:42.402Z,3.65
2019-01-06T17:45:49.804Z,4.33
2019-01-06T17:48:51.374Z,4.72
2019-01-06T17:54:45.570Z,3.40
2019-01-06T17:57:54.219Z,3.58
2019-01-06T18:01:20.447Z,4.15
2019-01-06T18:04:17.999Z,3.85
2019-01-06T18:07:24.692Z,5.22
2019-01-06T18:10:25.728Z,4.15
2019-01-06T18:13:33.655Z,4.40
2019-01-06T18:16:40.491Z,4.15
2019-01-06T18:19:41.795Z,4.20
2019-01-06T18:25:55.558Z,4.37
2019-01-06T18:29:04.843Z,4.30
2019-01-06T18:32:11.667Z,4.95
2019-01-06T18:34:57.441Z,4.70
2019-01-06T18:38:04.880Z,4.28
2019-01-06T18:41:12.596Z,6.95
2019-01-06T18:44:13.373Z,5.75
2019-01-06T18:47:26.073Z,4.72
2019-01-06T18:50:26.361Z,4.78
2019-01-06T18:53:26.093Z,5.97
2019-01-06T18:56:34.084Z,4.70
2019-01-06T18:59:22.113Z,4.97
2019-01-06T19:02:29.524Z,4.42
2019-01-06T19:08:27.413Z,5.95
2019-01-06T19:11:23.796Z,5.62
2019-01-06T19:14:13.603Z,6.20
2019-01-06T19:17:01.257Z,5.45
2019-01-06T19:19:50.522Z,5.62
2019-01-06T19:23:02.019Z,6.90
2019-01-06T19:25:50.556Z,5.75
2019-01-06T19:28:57.106Z,7.08
2019-01-06T19:32:03.415Z,5.85
2019-01-06T19:34:55.088Z,5.20
2019-01-06T19:37:48.506Z,5.62
2019-01-06T19:40:36.733Z,4.80
2019-01-06T19:43:39.128Z,6.40
2019-01-06T19:46:46.361Z,5.90
2019-01-06T19:49:34.092Z,6.85
2019-01-06T19:52:41.799Z,6.30
2019-01-06T19:55:29.512Z,7.80
2019-01-06T19:58:17.328Z,7.90
2019-01-06T20:01:05.128Z,7.15
2019-01-06T20:04:07.976Z,8.88
2019-01-06T20:07:15.385Z,8.03
2019-01-06T20:10:17.060Z,6.85
2019-01-06T20:13:24.510Z,6.20
2019-01-06T20:16:29.447Z,9.83
2019-01-06T20:19:20.398Z,9.03
2019-01-06T20:22:27.557Z,7.40
2019-01-06T20:25:28.840Z,8.63
2019-01-06T20:28:16.802Z,9.60
2019-01-06T20:31:24.238Z,10.80
2019-01-06T20:34:24.189Z,9.53
2019-01-06T20:37:31.564Z,11.35
2019-01-06T20:40:19.303Z,11.15
2019-01-06T20:46:26.093Z,11.78
2019-01-06T20:49:13.694Z,10.45
2019-01-06T20:52:14.230Z,12.50
2019-01-06T20:55:02.255Z,12.58
2019-01-06T20:58:11.412Z,10.53
2019-01-06T21:01:18.766Z,12.63
2019-01-06T21:04:25.250Z,9.28
2019-01-06T21:07:32.862Z,10.43
2019-01-06T21:10:39.430Z,11.95
2019-01-06T21:13:46.482Z,9.58
2019-01-06T21:16:34.195Z,10.25
2019-01-06T21:19:22.035Z,9.70
2019-01-06T21:22:08.211Z,11.85
2019-01-06T21:24:55.286Z,9.78
2019-01-06T21:27:45.718Z,11.00
2019-01-06T21:30:33.455Z,10.63
2019-01-06T21:33:21.224Z,12.82
2019-01-06T21:36:21.289Z,13.18
2019-01-06T21:39:28.604Z,13.85
2019-01-06T21:42:16.231Z,14.90
2019-01-06T21:45:02.335Z,13.18
2019-01-06T21:47:48.381Z,13.38
2019-01-06T21:50:28.933Z,13.58
2019-01-06T21:53:16.083Z,14.40
2019-01-06T21:56:03.800Z,16.45
2019-01-06T21:59:11.086Z,17.50
2019-01-06T22:02:17.067Z,16.67
2019-01-06T22:05:24.439Z,13.93
2019-01-06T22:08:25.363Z,18.57
2019-01-06T22:11:26.417Z,15.72
2019-01-06T22:14:36.223Z,18.48
2019-01-06T22:17:40.243Z,14.55
2019-01-06T22:20:40.451Z,19.50
2019-01-06T22:23:47.519Z,17.40
2019-01-06T22:26:48.678Z,14.30
2019-01-06T22:29:55.837Z,17.50
2019-01-06T22:32:56.798Z,17.65
2019-01-06T22:35:57.633Z,17.00
2019-01-06T22:38:52.332Z,17.37
2019-01-06T22:41:39.889Z,17.52
2019-01-06T22:44:46.939Z,19.05
2019-01-06T22:47:46.978Z,18.95
2019-01-06T22:50:23.007Z,18.80
2019-01-06T22:53:24.816Z,17.48
2019-01-06T22:56:18.405Z,20.00
2019-01-06T22:59:05.936Z,17.62
2019-01-06T23:01:53.646Z,19.85
2019-01-06T23:05:00.790Z,19.10
2019-01-06T23:08:02.468Z,19.48
2019-01-06T23:11:09.793Z,21.57
2019-01-06T23:17:05.659Z,19.57
2019-01-06T23:19:51.949Z,22.98
2019-01-06T23:22:39.702Z,21.17
2019-01-06T23:25:43.757Z,18.35
2019-01-06T23:28:31.330Z,20.32
2019-01-06T23:31:21.382Z,19.80
2019-01-06T23:34:28.604Z,19.98
2019-01-06T23:37:24.164Z,20.37
2019-01-06T23:40:31.601Z,18.82
2019-01-06T23:43:35.185Z,21.73
2019-01-06T23:46:42.160Z,17.92
2019-01-06T23:49:43.667Z,16.30
2019-01-06T23:52:31.382Z,15.98
2019-01-06T23:55:31.672Z,17.85
2019-01-06T23:58:19.315Z,15.13
